Strood, United Kingdom
Current Conditions -  °F | °C
As of 7:50 AM on Friday 31 Oct 2014 (Local Time) from EGMC Reporting Station
Clear Clear  
Wind Chill: 59°   Ceiling: Unl
Heat Index: 59°   Visibility: 6mi
Dew Point: 55°   Wind: 9mph
Humidity: 88%   Direction: 180°S
Pressure: 30.06"   Gusts: NA
Location:  51.4°N, 0.49°E
Report Text: EGMC 310750Z 18008KT CAVOK 15/13 Q1018
Loading
Personal Weather Stations






























Interactive Weather Map
Tropical Storm Tracking
New forecast layout! Learn more

10-Day Weather Forecast

Advertisements
Track Severe Weather on mobile